createdAt,value
2022-08-22T00:01:00.658Z,8.90
2022-08-22T00:02:42.776Z,9.02
2022-08-22T00:02:56.592Z,8.27
2022-08-22T00:02:57.377Z,8.82
2022-08-22T00:03:03.566Z,18.27
2022-08-22T00:03:42.602Z,9.82
2022-08-22T00:06:19.134Z,9.07
2022-08-22T00:08:58.510Z,8.32
2022-08-22T00:11:37.394Z,7.68
2022-08-22T00:14:15.782Z,9.67
2022-08-22T00:16:54.728Z,8.52
2022-08-22T00:19:31.547Z,8.25
2022-08-22T00:22:04.468Z,9.07
2022-08-22T00:24:40.527Z,8.30
2022-08-22T00:27:14.394Z,7.43
2022-08-22T00:29:45.863Z,8.68
2022-08-22T00:32:21.492Z,8.38
2022-08-22T00:34:58.364Z,9.52
2022-08-22T00:37:31.591Z,9.55
2022-08-22T00:40:10.466Z,9.33
2022-08-22T00:43:09.208Z,7.97
2022-08-22T00:46:09.570Z,12.05
2022-08-22T00:49:03.446Z,9.30
2022-08-22T00:52:08.986Z,11.40
2022-08-22T00:55:00.521Z,7.30
2022-08-22T00:57:44.648Z,12.15
2022-08-22T01:00:18.220Z,11.60
2022-08-22T01:03:08.856Z,9.18
2022-08-22T01:05:54.153Z,8.23
2022-08-22T01:08:38.142Z,8.83
2022-08-22T01:11:25.046Z,8.07
2022-08-22T01:14:09.779Z,9.40
2022-08-22T01:17:01.292Z,8.30
2022-08-22T01:20:13.767Z,9.00
2022-08-22T01:23:19.583Z,8.43
2022-08-22T01:26:19.883Z,8.82
2022-08-22T01:29:27.707Z,7.75
2022-08-22T01:32:42.200Z,8.88
2022-08-22T01:35:29.641Z,9.23
2022-08-22T01:38:27.102Z,8.37
2022-08-22T01:41:18.647Z,8.05
2022-08-22T01:44:15.348Z,10.50
2022-08-22T01:46:58.899Z,7.70
2022-08-22T01:49:33.118Z,7.88
2022-08-22T01:52:07.827Z,10.10
2022-08-22T01:54:44.814Z,10.48
2022-08-22T01:57:14.689Z,8.65
2022-08-22T01:59:47.524Z,9.60
2022-08-22T02:02:33.742Z,8.82
2022-08-22T02:05:07.910Z,7.57
2022-08-22T02:07:50.063Z,7.72
2022-08-22T02:10:26.907Z,8.10
2022-08-22T02:13:07.776Z,9.75
2022-08-22T02:15:48.310Z,8.60
2022-08-22T02:18:26.143Z,8.00
2022-08-22T02:21:04.048Z,8.68
2022-08-22T02:23:47.294Z,9.07
2022-08-22T02:26:21.625Z,8.40
2022-08-22T02:28:59.003Z,9.52
2022-08-22T02:31:40.329Z,7.57
2022-08-22T02:34:37.279Z,9.95
2022-08-22T02:37:14.260Z,8.30
2022-08-22T02:39:52.033Z,7.88
2022-08-22T02:42:28.330Z,11.07
2022-08-22T02:45:04.332Z,7.97
2022-08-22T02:47:42.434Z,7.82
2022-08-22T02:50:21.233Z,9.55
2022-08-22T02:53:02.735Z,9.20
2022-08-22T02:55:42.175Z,10.15
2022-08-22T02:58:21.685Z,7.97
2022-08-22T03:00:53.189Z,10.77
2022-08-22T03:03:27.458Z,9.75
2022-08-22T03:06:04.322Z,8.48
2022-08-22T03:08:35.972Z,9.70
2022-08-22T03:11:20.683Z,9.30
2022-08-22T03:13:57.982Z,7.70
2022-08-22T03:16:35.410Z,7.32
2022-08-22T03:19:13.246Z,8.90
2022-08-22T03:21:54.720Z,9.50
2022-08-22T03:24:29.234Z,10.30
2022-08-22T03:27:07.656Z,8.93
2022-08-22T03:29:40.460Z,10.02
2022-08-22T03:32:14.069Z,8.55
2022-08-22T03:34:57.930Z,7.93
2022-08-22T03:37:37.766Z,8.93
2022-08-22T03:40:22.737Z,10.38
2022-08-22T03:43:18.907Z,7.70
2022-08-22T03:46:17.815Z,8.38
2022-08-22T03:49:09.626Z,9.73
2022-08-22T03:52:03.174Z,7.60
2022-08-22T03:54:57.722Z,9.95
2022-08-22T03:58:18.469Z,7.60
2022-08-22T04:01:21.959Z,9.77
2022-08-22T04:04:34.895Z,9.68
2022-08-22T04:07:31.436Z,11.07
2022-08-22T04:10:31.130Z,8.30
2022-08-22T04:13:25.026Z,12.65
2022-08-22T04:16:26.256Z,11.73
2022-08-22T04:19:13.403Z,7.93
2022-08-22T04:22:13.617Z,8.00
2022-08-22T04:24:59.672Z,8.25
2022-08-22T04:27:34.003Z,9.88
2022-08-22T04:30:10.581Z,10.93
2022-08-22T04:32:43.454Z,10.70
2022-08-22T04:35:18.814Z,9.13
2022-08-22T04:37:52.351Z,8.48
2022-08-22T04:40:25.423Z,8.55
2022-08-22T04:42:58.216Z,9.90
2022-08-22T04:45:33.701Z,10.05
2022-08-22T04:48:09.021Z,12.20
2022-08-22T04:50:44.446Z,13.10
2022-08-22T04:53:26.595Z,8.90
2022-08-22T04:56:08.505Z,9.27
2022-08-22T04:58:56.357Z,8.57
2022-08-22T05:01:38.317Z,7.57
2022-08-22T05:04:09.495Z,9.35
2022-08-22T05:06:42.580Z,7.97
2022-08-22T05:09:16.313Z,12.38
2022-08-22T05:11:46.391Z,9.82
2022-08-22T05:14:19.134Z,13.07
2022-08-22T05:16:53.896Z,15.35
2022-08-22T05:19:31.896Z,10.40
2022-08-22T05:22:00.866Z,7.78
2022-08-22T05:24:34.090Z,9.73
2022-08-22T05:27:11.189Z,12.13
2022-08-22T05:29:41.788Z,9.30
2022-08-22T05:32:18.047Z,10.20
2022-08-22T05:34:47.936Z,8.00
2022-08-22T05:37:23.529Z,9.77
2022-08-22T05:39:57.535Z,10.30
2022-08-22T05:42:30.822Z,9.52
2022-08-22T05:44:59.365Z,8.75
2022-08-22T05:47:41.062Z,7.95
2022-08-22T05:50:14.466Z,9.90
2022-08-22T05:52:51.998Z,9.53
2022-08-22T05:55:26.528Z,10.05
2022-08-22T05:58:17.965Z,9.10
2022-08-22T06:00:52.104Z,10.13
2022-08-22T06:03:29.126Z,11.70
2022-08-22T06:06:00.655Z,9.73
2022-08-22T06:08:34.592Z,9.88
2022-08-22T06:11:08.057Z,11.05
2022-08-22T06:13:41.387Z,9.65
2022-08-22T06:16:16.908Z,12.07
2022-08-22T06:18:46.904Z,14.17
2022-08-22T06:21:21.749Z,10.48
2022-08-22T06:23:54.227Z,11.25
2022-08-22T06:26:22.550Z,10.32
2022-08-22T06:28:55.676Z,11.75
2022-08-22T06:31:28.147Z,10.73
2022-08-22T06:34:05.757Z,10.35
2022-08-22T06:36:36.259Z,10.63
2022-08-22T06:39:15.933Z,11.25
2022-08-22T06:41:50.941Z,13.40
2022-08-22T06:44:23.219Z,11.13
2022-08-22T06:46:56.299Z,10.80
2022-08-22T06:49:27.716Z,10.65
2022-08-22T06:52:01.023Z,10.93
2022-08-22T06:54:34.485Z,12.32
2022-08-22T06:57:04.925Z,12.83
2022-08-22T06:59:38.251Z,10.82
2022-08-22T07:02:16.624Z,11.98
2022-08-22T07:04:48.832Z,12.10
2022-08-22T07:07:19.739Z,11.45
2022-08-22T07:09:55.303Z,10.90
2022-08-22T07:12:27.122Z,15.15
2022-08-22T07:14:59.433Z,13.23
2022-08-22T07:17:30.639Z,12.27
2022-08-22T07:20:05.044Z,12.48
2022-08-22T07:22:36.580Z,11.53
2022-08-22T07:25:11.116Z,13.38
2022-08-22T07:27:51.830Z,11.73
2022-08-22T07:30:28.232Z,8.93
2022-08-22T07:33:25.817Z,8.93
2022-08-22T07:35:59.679Z,11.57
2022-08-22T07:38:35.816Z,8.45
2022-08-22T07:41:14.030Z,9.55
2022-08-22T07:43:47.043Z,9.30
2022-08-22T07:46:27.491Z,11.50
2022-08-22T07:49:09.058Z,9.67
2022-08-22T07:51:44.295Z,8.98
2022-08-22T07:54:14.989Z,9.43
2022-08-22T07:56:46.622Z,7.70
2022-08-22T07:59:18.114Z,7.13
2022-08-22T08:01:49.746Z,7.97
2022-08-22T08:04:23.280Z,7.60
2022-08-22T08:06:57.103Z,9.07
2022-08-22T08:09:28.799Z,7.10
2022-08-22T08:11:58.090Z,8.18
2022-08-22T08:14:27.904Z,6.43
2022-08-22T08:17:03.231Z,12.60
2022-08-22T08:19:34.436Z,6.15
2022-08-22T08:22:04.885Z,7.32
2022-08-22T08:24:40.334Z,10.98
2022-08-22T08:27:33.057Z,7.13
2022-08-22T08:30:04.679Z,7.55
2022-08-22T08:32:37.331Z,6.75
2022-08-22T08:35:09.120Z,6.80
2022-08-22T08:37:46.485Z,6.97
2022-08-22T08:40:27.401Z,7.03
2022-08-22T08:43:31.355Z,5.25
2022-08-22T08:46:38.765Z,7.22
2022-08-22T08:49:42.115Z,5.57
2022-08-22T08:52:52.177Z,5.72
2022-08-22T08:55:31.977Z,8.30
2022-08-22T08:58:26.624Z,6.47
2022-08-22T09:01:06.806Z,6.75
2022-08-22T09:04:06.937Z,7.65
2022-08-22T09:07:07.995Z,6.25
2022-08-22T09:09:57.322Z,6.87
2022-08-22T09:12:56.017Z,7.15
2022-08-22T09:15:38.929Z,7.30
2022-08-22T09:18:38.125Z,6.80
2022-08-22T09:21:31.359Z,8.68
2022-08-22T09:24:35.090Z,7.23
2022-08-22T09:27:10.203Z,9.38
2022-08-22T09:29:54.724Z,6.30
2022-08-22T09:32:36.151Z,9.15
2022-08-22T09:35:09.345Z,5.82
2022-08-22T09:37:48.669Z,7.20
2022-08-22T09:43:07.270Z,6.80
2022-08-22T09:45:50.107Z,7.35
2022-08-22T09:48:44.117Z,6.35
2022-08-22T09:51:31.615Z,7.03
2022-08-22T09:54:31.614Z,7.32
2022-08-22T09:57:22.513Z,8.23
2022-08-22T10:00:15.738Z,5.53
2022-08-22T10:02:52.428Z,6.65
2022-08-22T10:05:39.513Z,7.40
2022-08-22T10:08:40.371Z,6.28
2022-08-22T10:11:23.792Z,7.97
2022-08-22T10:14:01.291Z,8.02
2022-08-22T10:17:05.562Z,9.60
2022-08-22T10:19:41.524Z,5.50
2022-08-22T10:22:31.672Z,7.57
2022-08-22T10:25:29.084Z,10.30
2022-08-22T10:28:12.011Z,7.45
2022-08-22T10:30:52.393Z,5.47
2022-08-22T10:33:29.193Z,7.33
2022-08-22T10:36:04.997Z,6.75
2022-08-22T10:38:44.244Z,5.93
2022-08-22T10:41:25.965Z,7.65
2022-08-22T10:44:04.116Z,8.15
2022-08-22T10:46:42.971Z,6.93
2022-08-22T10:49:20.624Z,4.78
2022-08-22T10:51:56.842Z,9.77
2022-08-22T10:54:47.360Z,6.30
2022-08-22T10:57:39.752Z,6.25
2022-08-22T11:00:15.134Z,5.70
2022-08-22T11:02:53.646Z,7.10
2022-08-22T11:05:35.306Z,6.15
2022-08-22T11:08:22.145Z,7.60
2022-08-22T11:11:17.784Z,7.22
2022-08-22T11:13:59.773Z,6.73
2022-08-22T11:16:45.603Z,6.30
2022-08-22T11:19:28.581Z,6.65
2022-08-22T11:22:10.165Z,5.75
2022-08-22T11:25:04.778Z,6.80
2022-08-22T11:27:44.343Z,5.23
2022-08-22T11:30:18.743Z,6.15
2022-08-22T11:33:17.787Z,5.47
2022-08-22T11:35:55.989Z,5.72
2022-08-22T11:38:36.210Z,7.35
2022-08-22T11:41:11.096Z,4.83
2022-08-22T11:43:51.850Z,4.60
2022-08-22T11:46:29.271Z,6.30
2022-08-22T11:49:32.731Z,6.93
2022-08-22T11:52:13.746Z,5.97
2022-08-22T11:54:58.696Z,7.17
2022-08-22T11:57:34.017Z,5.63
2022-08-22T12:00:16.900Z,6.18
2022-08-22T12:03:02.292Z,5.97
2022-08-22T12:05:34.522Z,7.68
2022-08-22T12:08:11.412Z,7.43
2022-08-22T12:10:49.054Z,6.68
2022-08-22T12:13:34.938Z,6.05
2022-08-22T12:16:12.767Z,7.97
2022-08-22T12:18:52.839Z,5.07
2022-08-22T12:21:49.613Z,6.13
2022-08-22T12:24:46.003Z,5.75
2022-08-22T12:27:40.808Z,6.13
2022-08-22T12:30:22.763Z,6.63
2022-08-22T12:33:13.136Z,9.15
2022-08-22T12:35:54.884Z,6.87
2022-08-22T12:38:39.940Z,7.80
2022-08-22T12:41:38.339Z,5.82
2022-08-22T12:44:24.341Z,8.63
2022-08-22T12:47:06.531Z,5.68
2022-08-22T12:49:52.555Z,6.23
2022-08-22T12:52:35.638Z,4.70
2022-08-22T12:55:37.805Z,5.63
2022-08-22T12:58:15.318Z,6.28
2022-08-22T13:00:49.609Z,5.25
2022-08-22T13:03:27.299Z,8.73
2022-08-22T13:06:00.572Z,6.10
2022-08-22T13:08:32.141Z,5.85
2022-08-22T13:11:09.850Z,6.10
2022-08-22T13:13:56.155Z,5.95
2022-08-22T13:16:36.509Z,7.93
2022-08-22T13:19:13.481Z,4.90
2022-08-22T13:21:48.895Z,8.82
2022-08-22T13:24:38.894Z,5.35
2022-08-22T13:27:15.364Z,5.28
2022-08-22T13:29:49.280Z,6.57
2022-08-22T13:32:26.428Z,6.80
2022-08-22T13:34:57.796Z,5.97
2022-08-22T13:37:32.443Z,6.93
2022-08-22T13:40:05.284Z,4.85
2022-08-22T13:42:40.161Z,5.53
2022-08-22T13:45:16.396Z,7.60
2022-08-22T13:47:54.912Z,5.68
2022-08-22T13:50:25.925Z,6.45
2022-08-22T13:53:02.262Z,5.75
2022-08-22T13:55:36.163Z,5.60
2022-08-22T13:58:13.942Z,6.78
2022-08-22T14:01:25.241Z,7.10
2022-08-22T14:03:59.994Z,4.88
2022-08-22T14:06:37.899Z,6.53
2022-08-22T14:09:31.279Z,5.03
2022-08-22T14:12:12.772Z,5.80
2022-08-22T14:14:45.863Z,5.47
2022-08-22T14:17:17.597Z,7.13
2022-08-22T14:19:59.301Z,6.85
2022-08-22T14:22:35.170Z,6.30
2022-08-22T14:25:07.645Z,4.00
2022-08-22T14:27:39.664Z,4.20
2022-08-22T14:30:15.381Z,7.85
2022-08-22T14:32:48.253Z,4.97
2022-08-22T14:35:29.202Z,4.90
2022-08-22T14:38:27.171Z,5.07
2022-08-22T14:41:00.514Z,3.97
2022-08-22T14:43:50.561Z,5.07
2022-08-22T14:46:26.721Z,6.82
2022-08-22T14:49:29.861Z,6.00
2022-08-22T14:52:05.307Z,4.65
2022-08-22T14:54:34.453Z,4.88
2022-08-22T14:57:05.043Z,4.82
2022-08-22T14:59:50.084Z,5.00
2022-08-22T15:02:26.244Z,4.80
2022-08-22T15:04:56.037Z,4.57
2022-08-22T15:07:29.182Z,4.63
2022-08-22T15:10:03.506Z,5.45
2022-08-22T15:12:36.513Z,4.10
2022-08-22T15:15:11.305Z,5.37
2022-08-22T15:17:45.681Z,4.72
2022-08-22T15:20:31.307Z,5.43
2022-08-22T15:23:09.704Z,5.00
2022-08-22T15:25:42.179Z,6.43
2022-08-22T15:28:22.582Z,10.00
2022-08-22T15:31:03.447Z,4.50
2022-08-22T15:33:34.653Z,4.40
2022-08-22T15:36:15.657Z,3.95
2022-08-22T15:38:48.086Z,3.95
2022-08-22T15:41:46.717Z,5.00
2022-08-22T15:44:32.183Z,5.05
2022-08-22T15:47:11.827Z,5.70
2022-08-22T15:49:52.421Z,6.85
2022-08-22T15:52:28.472Z,4.45
2022-08-22T15:55:22.037Z,4.90
2022-08-22T15:58:02.486Z,5.38
2022-08-22T16:00:43.369Z,6.38
2022-08-22T16:03:24.836Z,4.90
2022-08-22T16:05:56.066Z,5.40
2022-08-22T16:08:32.690Z,7.03
2022-08-22T16:11:28.437Z,5.80
2022-08-22T16:14:21.369Z,6.22
2022-08-22T16:17:03.173Z,4.90
2022-08-22T16:19:33.376Z,5.88
2022-08-22T16:22:19.456Z,7.37
2022-08-22T16:25:03.415Z,5.32
2022-08-22T16:27:33.967Z,6.03
2022-08-22T16:30:17.016Z,4.95
2022-08-22T16:32:57.248Z,5.38
2022-08-22T16:36:02.755Z,6.43
2022-08-22T16:38:41.186Z,6.38
2022-08-22T16:41:25.678Z,6.43
2022-08-22T16:44:18.522Z,8.38
2022-08-22T16:46:48.546Z,5.53
2022-08-22T16:49:27.577Z,5.30
2022-08-22T16:52:35.148Z,5.78
2022-08-22T16:55:05.982Z,4.70
2022-08-22T16:58:05.001Z,4.47
2022-08-22T17:00:45.337Z,5.40
2022-08-22T17:03:26.289Z,4.93
2022-08-22T17:06:15.810Z,5.03
2022-08-22T17:08:58.320Z,5.05
2022-08-22T17:11:39.658Z,4.30
2022-08-22T17:14:25.376Z,4.85
2022-08-22T17:17:13.597Z,5.10
2022-08-22T17:19:55.812Z,6.65
2022-08-22T17:22:31.356Z,7.25
2022-08-22T17:25:17.028Z,5.18
2022-08-22T17:27:51.474Z,6.47
2022-08-22T17:30:24.545Z,7.63
2022-08-22T17:33:12.124Z,6.60
2022-08-22T17:36:04.684Z,4.72
2022-08-22T17:38:47.343Z,5.30
2022-08-22T17:41:27.613Z,4.43
2022-08-22T17:44:08.898Z,7.40
2022-08-22T17:46:45.742Z,4.70
2022-08-22T17:49:31.125Z,4.18
2022-08-22T17:52:07.436Z,4.90
2022-08-22T17:54:41.579Z,4.35
2022-08-22T17:57:14.486Z,6.50
2022-08-22T17:59:50.649Z,4.60
2022-08-22T18:02:24.126Z,4.75
2022-08-22T18:05:02.978Z,5.65
2022-08-22T18:07:45.922Z,5.35
2022-08-22T18:10:23.166Z,5.53
2022-08-22T18:13:03.485Z,5.90
2022-08-22T18:15:42.069Z,7.07
2022-08-22T18:18:19.960Z,4.43
2022-08-22T18:20:57.914Z,13.18
2022-08-22T18:23:40.342Z,4.77
2022-08-22T18:26:20.551Z,6.38
2022-08-22T18:28:54.281Z,4.88
2022-08-22T18:31:39.102Z,6.55
2022-08-22T18:34:16.906Z,5.10
2022-08-22T18:36:55.633Z,4.73
2022-08-22T18:39:29.035Z,4.53
2022-08-22T18:42:05.079Z,4.38
2022-08-22T18:44:38.997Z,7.35
2022-08-22T18:47:16.512Z,4.35
2022-08-22T18:49:48.398Z,4.47
2022-08-22T18:52:33.905Z,4.20
2022-08-22T18:55:27.067Z,4.63
2022-08-22T18:58:28.822Z,6.75
2022-08-22T19:01:10.243Z,3.90
2022-08-22T19:03:53.240Z,6.27
2022-08-22T19:06:48.389Z,5.15
2022-08-22T19:09:42.491Z,5.25
2022-08-22T19:12:31.418Z,3.47
2022-08-22T19:15:23.800Z,4.55
2022-08-22T19:18:19.780Z,3.73
2022-08-22T19:21:37.870Z,5.65
2022-08-22T19:24:10.832Z,5.00
2022-08-22T19:26:44.427Z,7.32
2022-08-22T19:29:49.999Z,4.43
2022-08-22T19:32:51.171Z,4.53
2022-08-22T19:35:22.235Z,5.97
2022-08-22T19:37:54.860Z,4.38
2022-08-22T19:40:49.319Z,4.00
2022-08-22T19:43:40.966Z,3.88
2022-08-22T19:46:12.681Z,4.07
2022-08-22T19:48:47.583Z,3.72
2022-08-22T19:51:28.130Z,7.75
2022-08-22T19:54:16.997Z,3.97
2022-08-22T19:56:59.585Z,5.03
2022-08-22T19:59:46.770Z,4.77
2022-08-22T20:02:31.857Z,4.30
2022-08-22T20:05:18.453Z,4.93
2022-08-22T20:08:00.514Z,4.13
2022-08-22T20:10:35.385Z,5.57
2022-08-22T20:13:08.530Z,5.80
2022-08-22T20:16:02.126Z,6.50
2022-08-22T20:19:02.003Z,4.43
2022-08-22T20:21:58.075Z,5.53
2022-08-22T20:24:39.110Z,3.97
2022-08-22T20:27:15.360Z,5.03
2022-08-22T20:29:51.078Z,5.95
2022-08-22T20:32:24.145Z,5.10
2022-08-22T20:34:57.940Z,5.07
2022-08-22T20:38:02.763Z,4.82
2022-08-22T20:40:53.522Z,5.10
2022-08-22T20:43:28.349Z,5.10
2022-08-22T20:46:13.273Z,5.05
2022-08-22T20:48:45.751Z,4.90
2022-08-22T20:51:17.338Z,5.10
2022-08-22T20:53:52.767Z,5.67
2022-08-22T20:56:37.123Z,5.60
2022-08-22T20:59:25.730Z,5.35
2022-08-22T21:01:58.116Z,5.22
2022-08-22T21:04:33.570Z,5.05
2022-08-22T21:07:03.204Z,6.57
2022-08-22T21:09:49.496Z,5.95
2022-08-22T21:12:18.063Z,5.13
2022-08-22T21:14:47.149Z,5.30
2022-08-22T21:17:21.604Z,5.50
2022-08-22T21:19:51.673Z,5.33
2022-08-22T21:22:25.725Z,6.15
2022-08-22T21:24:57.135Z,4.40
2022-08-22T21:27:28.550Z,5.85
2022-08-22T21:29:57.324Z,6.80
2022-08-22T21:32:34.734Z,6.50
2022-08-22T21:35:06.012Z,5.35
2022-08-22T21:37:40.449Z,5.82
2022-08-22T21:40:16.960Z,4.50
2022-08-22T21:42:59.055Z,6.82
2022-08-22T21:45:29.481Z,7.57
2022-08-22T21:47:58.289Z,6.30
2022-08-22T21:50:34.702Z,5.20
2022-08-22T21:53:10.342Z,5.28
2022-08-22T21:55:42.934Z,5.30
2022-08-22T21:58:36.001Z,5.53
2022-08-22T22:01:30.059Z,5.28
2022-08-22T22:03:59.451Z,6.57
2022-08-22T22:06:28.885Z,5.60
2022-08-22T22:08:57.516Z,5.35
2022-08-22T22:11:25.660Z,7.23
2022-08-22T22:13:54.437Z,6.03
2022-08-22T22:16:26.556Z,6.05
2022-08-22T22:18:55.097Z,7.50
2022-08-22T22:21:23.214Z,4.60
2022-08-22T22:23:52.711Z,5.87
2022-08-22T22:26:21.411Z,5.65
2022-08-22T22:28:50.193Z,5.70
2022-08-22T22:31:19.240Z,4.95
2022-08-22T22:33:47.905Z,5.40
2022-08-22T22:36:19.210Z,6.53
2022-08-22T22:38:47.791Z,4.57
2022-08-22T22:41:19.167Z,5.15
2022-08-22T22:43:47.577Z,5.00
2022-08-22T22:46:15.895Z,6.00
2022-08-22T22:48:44.124Z,5.83
2022-08-22T22:51:13.581Z,5.55
2022-08-22T22:53:43.682Z,6.88
2022-08-22T22:56:15.847Z,7.13
2022-08-22T22:58:47.507Z,6.45
2022-08-22T23:01:18.436Z,6.13
2022-08-22T23:03:47.171Z,6.95
2022-08-22T23:06:18.286Z,5.30
2022-08-22T23:08:47.303Z,7.10
2022-08-22T23:11:18.578Z,6.68
2022-08-22T23:13:49.162Z,6.03
2022-08-22T23:16:19.590Z,6.50
2022-08-22T23:18:48.091Z,7.10
2022-08-22T23:21:19.209Z,8.68
2022-08-22T23:23:47.796Z,7.18
2022-08-22T23:26:16.342Z,6.00
2022-08-22T23:28:44.962Z,6.75
2022-08-22T23:31:17.925Z,6.25
2022-08-22T23:33:46.632Z,6.93
2022-08-22T23:36:17.780Z,6.97
2022-08-22T23:38:46.984Z,9.03
2022-08-22T23:41:17.909Z,6.07
2022-08-22T23:43:49.089Z,6.40
2022-08-22T23:46:20.705Z,6.10
2022-08-22T23:48:48.885Z,6.00
2022-08-22T23:51:23.095Z,7.17
2022-08-22T23:53:51.785Z,8.18
2022-08-22T23:56:22.638Z,6.05
2022-08-22T23:58:53.162Z,5.78
